sensor_id;sensor_type;location;lat;lon;timestamp;P1;durP1;ratioP1;P2;durP2;ratioP2
12218;SDS011;6172;42.646;23.344;2022-12-20T00:00:50;7.77;;;3.80;;
12218;SDS011;6172;42.646;23.344;2022-12-20T00:03:17;9.73;;;4.87;;
12218;SDS011;6172;42.646;23.344;2022-12-20T00:05:45;7.40;;;4.20;;
12218;SDS011;6172;42.646;23.344;2022-12-20T00:08:12;5.10;;;2.93;;
12218;SDS011;6172;42.646;23.344;2022-12-20T00:10:58;8.97;;;4.80;;
12218;SDS011;6172;42.646;23.344;2022-12-20T00:13:26;8.57;;;4.50;;
12218;SDS011;6172;42.646;23.344;2022-12-20T00:16:03;8.83;;;4.50;;
12218;SDS011;6172;42.646;23.344;2022-12-20T00:18:36;8.50;;;4.63;;
12218;SDS011;6172;42.646;23.344;2022-12-20T00:21:05;9.27;;;4.53;;
12218;SDS011;6172;42.646;23.344;2022-12-20T00:23:34;9.90;;;5.20;;
12218;SDS011;6172;42.646;23.344;2022-12-20T00:26:03;9.93;;;5.00;;
12218;SDS011;6172;42.646;23.344;2022-12-20T00:28:32;8.23;;;4.67;;
12218;SDS011;6172;42.646;23.344;2022-12-20T00:31:20;9.90;;;4.83;;
12218;SDS011;6172;42.646;23.344;2022-12-20T00:33:49;10.73;;;5.03;;
12218;SDS011;6172;42.646;23.344;2022-12-20T00:36:19;10.73;;;4.87;;
12218;SDS011;6172;42.646;23.344;2022-12-20T00:38:47;10.00;;;4.80;;
12218;SDS011;6172;42.646;23.344;2022-12-20T00:41:16;8.53;;;3.97;;
12218;SDS011;6172;42.646;23.344;2022-12-20T00:43:45;8.87;;;4.07;;
12218;SDS011;6172;42.646;23.344;2022-12-20T00:46:16;11.00;;;4.97;;
12218;SDS011;6172;42.646;23.344;2022-12-20T00:48:47;10.57;;;4.97;;
12218;SDS011;6172;42.646;23.344;2022-12-20T00:51:16;11.30;;;4.93;;
12218;SDS011;6172;42.646;23.344;2022-12-20T00:53:47;10.07;;;4.60;;
12218;SDS011;6172;42.646;23.344;2022-12-20T00:56:16;9.50;;;4.80;;
12218;SDS011;6172;42.646;23.344;2022-12-20T00:59:00;10.13;;;5.27;;
12218;SDS011;6172;42.646;23.344;2022-12-20T01:01:31;7.43;;;4.07;;
12218;SDS011;6172;42.646;23.344;2022-12-20T01:04:06;8.87;;;4.40;;
12218;SDS011;6172;42.646;23.344;2022-12-20T01:06:42;10.77;;;4.50;;
12218;SDS011;6172;42.646;23.344;2022-12-20T01:09:22;8.00;;;4.10;;
12218;SDS011;6172;42.646;23.344;2022-12-20T01:15:51;10.30;;;5.17;;
12218;SDS011;6172;42.646;23.344;2022-12-20T01:18:22;10.70;;;4.50;;
12218;SDS011;6172;42.646;23.344;2022-12-20T01:20:59;9.07;;;4.77;;
12218;SDS011;6172;42.646;23.344;2022-12-20T01:23:31;10.50;;;4.13;;
12218;SDS011;6172;42.646;23.344;2022-12-20T01:26:02;8.13;;;4.90;;
12218;SDS011;6172;42.646;23.344;2022-12-20T01:28:33;4.93;;;2.90;;
12218;SDS011;6172;42.646;23.344;2022-12-20T01:31:04;10.37;;;4.63;;
12218;SDS011;6172;42.646;23.344;2022-12-20T01:33:36;5.87;;;2.93;;
12218;SDS011;6172;42.646;23.344;2022-12-20T01:36:07;11.13;;;4.40;;
12218;SDS011;6172;42.646;23.344;2022-12-20T01:38:39;7.53;;;4.80;;
12218;SDS011;6172;42.646;23.344;2022-12-20T01:41:13;9.67;;;5.20;;
12218;SDS011;6172;42.646;23.344;2022-12-20T01:43:47;12.23;;;5.23;;
12218;SDS011;6172;42.646;23.344;2022-12-20T01:46:20;9.43;;;4.90;;
12218;SDS011;6172;42.646;23.344;2022-12-20T01:49:09;8.13;;;4.53;;
12218;SDS011;6172;42.646;23.344;2022-12-20T01:51:41;10.77;;;5.13;;
12218;SDS011;6172;42.646;23.344;2022-12-20T01:54:13;9.53;;;4.17;;
12218;SDS011;6172;42.646;23.344;2022-12-20T01:56:42;6.40;;;4.10;;
12218;SDS011;6172;42.646;23.344;2022-12-20T01:59:14;9.10;;;4.53;;
12218;SDS011;6172;42.646;23.344;2022-12-20T02:01:41;9.10;;;5.10;;
12218;SDS011;6172;42.646;23.344;2022-12-20T02:04:11;6.37;;;4.10;;
12218;SDS011;6172;42.646;23.344;2022-12-20T02:06:41;8.07;;;4.80;;
12218;SDS011;6172;42.646;23.344;2022-12-20T02:09:08;10.40;;;4.80;;
12218;SDS011;6172;42.646;23.344;2022-12-20T02:11:44;11.83;;;5.30;;
12218;SDS011;6172;42.646;23.344;2022-12-20T02:14:34;9.07;;;4.40;;
12218;SDS011;6172;42.646;23.344;2022-12-20T02:17:17;10.40;;;4.83;;
12218;SDS011;6172;42.646;23.344;2022-12-20T02:20:04;10.87;;;4.80;;
12218;SDS011;6172;42.646;23.344;2022-12-20T02:22:48;9.53;;;5.13;;
12218;SDS011;6172;42.646;23.344;2022-12-20T02:25:42;8.63;;;4.43;;
12218;SDS011;6172;42.646;23.344;2022-12-20T02:28:23;8.17;;;4.37;;
12218;SDS011;6172;42.646;23.344;2022-12-20T02:31:08;11.40;;;4.20;;
12218;SDS011;6172;42.646;23.344;2022-12-20T02:33:39;11.67;;;5.20;;
12218;SDS011;6172;42.646;23.344;2022-12-20T02:36:13;10.57;;;5.20;;
12218;SDS011;6172;42.646;23.344;2022-12-20T02:38:44;9.77;;;4.67;;
12218;SDS011;6172;42.646;23.344;2022-12-20T02:41:16;7.87;;;4.13;;
12218;SDS011;6172;42.646;23.344;2022-12-20T02:43:48;8.97;;;4.93;;
12218;SDS011;6172;42.646;23.344;2022-12-20T02:46:40;10.70;;;4.90;;
12218;SDS011;6172;42.646;23.344;2022-12-20T02:49:16;10.00;;;5.13;;
12218;SDS011;6172;42.646;23.344;2022-12-20T02:51:48;12.70;;;5.60;;
12218;SDS011;6172;42.646;23.344;2022-12-20T02:54:19;10.50;;;5.00;;
12218;SDS011;6172;42.646;23.344;2022-12-20T02:56:49;9.50;;;5.23;;
12218;SDS011;6172;42.646;23.344;2022-12-20T02:59:27;11.13;;;5.37;;
12218;SDS011;6172;42.646;23.344;2022-12-20T03:02:04;11.83;;;6.20;;
12218;SDS011;6172;42.646;23.344;2022-12-20T03:04:36;11.13;;;5.90;;
12218;SDS011;6172;42.646;23.344;2022-12-20T03:07:07;12.47;;;5.83;;
12218;SDS011;6172;42.646;23.344;2022-12-20T03:09:37;10.43;;;5.67;;
12218;SDS011;6172;42.646;23.344;2022-12-20T03:12:06;12.53;;;5.60;;
12218;SDS011;6172;42.646;23.344;2022-12-20T03:14:36;12.70;;;5.53;;
12218;SDS011;6172;42.646;23.344;2022-12-20T03:17:06;12.23;;;6.40;;
12218;SDS011;6172;42.646;23.344;2022-12-20T03:19:33;11.67;;;6.07;;
12218;SDS011;6172;42.646;23.344;2022-12-20T03:22:00;9.93;;;5.70;;
12218;SDS011;6172;42.646;23.344;2022-12-20T03:24:28;11.60;;;5.80;;
12218;SDS011;6172;42.646;23.344;2022-12-20T03:26:56;10.37;;;5.70;;
12218;SDS011;6172;42.646;23.344;2022-12-20T03:29:24;15.40;;;6.10;;
12218;SDS011;6172;42.646;23.344;2022-12-20T03:31:51;12.10;;;6.07;;
12218;SDS011;6172;42.646;23.344;2022-12-20T03:34:20;10.60;;;5.83;;
12218;SDS011;6172;42.646;23.344;2022-12-20T03:36:48;15.33;;;6.93;;
12218;SDS011;6172;42.646;23.344;2022-12-20T03:39:20;14.37;;;6.60;;
12218;SDS011;6172;42.646;23.344;2022-12-20T03:41:52;11.70;;;6.57;;
12218;SDS011;6172;42.646;23.344;2022-12-20T03:44:22;12.60;;;6.50;;
12218;SDS011;6172;42.646;23.344;2022-12-20T03:46:51;12.43;;;6.33;;
12218;SDS011;6172;42.646;23.344;2022-12-20T03:49:23;15.70;;;7.70;;
12218;SDS011;6172;42.646;23.344;2022-12-20T03:51:51;13.30;;;6.80;;
12218;SDS011;6172;42.646;23.344;2022-12-20T03:54:30;13.00;;;7.17;;
12218;SDS011;6172;42.646;23.344;2022-12-20T03:57:07;12.43;;;6.83;;
12218;SDS011;6172;42.646;23.344;2022-12-20T03:59:52;15.23;;;7.47;;
12218;SDS011;6172;42.646;23.344;2022-12-20T04:02:35;16.70;;;5.33;;
12218;SDS011;6172;42.646;23.344;2022-12-20T04:08:00;12.83;;;6.83;;
12218;SDS011;6172;42.646;23.344;2022-12-20T04:10:30;10.10;;;5.07;;
12218;SDS011;6172;42.646;23.344;2022-12-20T04:13:30;15.00;;;7.30;;
12218;SDS011;6172;42.646;23.344;2022-12-20T04:15:59;14.97;;;7.00;;
12218;SDS011;6172;42.646;23.344;2022-12-20T04:18:32;15.90;;;7.33;;
12218;SDS011;6172;42.646;23.344;2022-12-20T04:21:24;13.33;;;7.47;;
12218;SDS011;6172;42.646;23.344;2022-12-20T04:24:01;11.83;;;6.03;;
12218;SDS011;6172;42.646;23.344;2022-12-20T04:26:43;14.07;;;7.33;;
12218;SDS011;6172;42.646;23.344;2022-12-20T04:29:13;12.30;;;6.43;;
12218;SDS011;6172;42.646;23.344;2022-12-20T04:31:44;12.57;;;7.00;;
12218;SDS011;6172;42.646;23.344;2022-12-20T04:34:16;12.50;;;6.97;;
12218;SDS011;6172;42.646;23.344;2022-12-20T04:36:45;15.30;;;7.63;;
12218;SDS011;6172;42.646;23.344;2022-12-20T04:39:12;16.17;;;8.20;;
12218;SDS011;6172;42.646;23.344;2022-12-20T04:41:40;18.37;;;7.97;;
12218;SDS011;6172;42.646;23.344;2022-12-20T04:44:07;14.70;;;8.33;;
12218;SDS011;6172;42.646;23.344;2022-12-20T04:46:35;13.03;;;7.40;;
12218;SDS011;6172;42.646;23.344;2022-12-20T04:49:02;15.13;;;8.37;;
12218;SDS011;6172;42.646;23.344;2022-12-20T04:51:29;16.60;;;8.43;;
12218;SDS011;6172;42.646;23.344;2022-12-20T04:53:58;15.17;;;8.33;;
12218;SDS011;6172;42.646;23.344;2022-12-20T04:56:24;15.77;;;8.33;;
12218;SDS011;6172;42.646;23.344;2022-12-20T04:58:53;14.77;;;7.87;;
12218;SDS011;6172;42.646;23.344;2022-12-20T05:01:21;18.70;;;8.53;;
12218;SDS011;6172;42.646;23.344;2022-12-20T05:03:48;16.27;;;8.30;;
12218;SDS011;6172;42.646;23.344;2022-12-20T05:06:15;15.83;;;8.90;;
12218;SDS011;6172;42.646;23.344;2022-12-20T05:08:43;18.17;;;8.27;;
12218;SDS011;6172;42.646;23.344;2022-12-20T05:11:16;16.03;;;7.37;;
12218;SDS011;6172;42.646;23.344;2022-12-20T05:13:43;15.37;;;8.20;;
12218;SDS011;6172;42.646;23.344;2022-12-20T05:16:10;15.77;;;7.87;;
12218;SDS011;6172;42.646;23.344;2022-12-20T05:18:37;16.90;;;7.97;;
12218;SDS011;6172;42.646;23.344;2022-12-20T05:21:05;16.67;;;7.73;;
12218;SDS011;6172;42.646;23.344;2022-12-20T05:23:51;15.17;;;8.23;;
12218;SDS011;6172;42.646;23.344;2022-12-20T05:26:39;14.87;;;8.20;;
12218;SDS011;6172;42.646;23.344;2022-12-20T05:29:18;18.63;;;8.17;;
12218;SDS011;6172;42.646;23.344;2022-12-20T05:31:48;14.13;;;8.27;;
12218;SDS011;6172;42.646;23.344;2022-12-20T05:34:16;17.60;;;8.77;;
12218;SDS011;6172;42.646;23.344;2022-12-20T05:36:43;19.13;;;9.70;;
12218;SDS011;6172;42.646;23.344;2022-12-20T05:39:10;20.37;;;9.83;;
12218;SDS011;6172;42.646;23.344;2022-12-20T05:41:37;22.53;;;9.73;;
12218;SDS011;6172;42.646;23.344;2022-12-20T05:44:06;14.33;;;8.47;;
12218;SDS011;6172;42.646;23.344;2022-12-20T05:46:34;15.73;;;9.20;;
12218;SDS011;6172;42.646;23.344;2022-12-20T05:49:09;15.20;;;8.57;;
12218;SDS011;6172;42.646;23.344;2022-12-20T05:51:36;17.70;;;9.47;;
12218;SDS011;6172;42.646;23.344;2022-12-20T05:54:04;16.67;;;8.70;;
12218;SDS011;6172;42.646;23.344;2022-12-20T05:56:35;16.43;;;8.33;;
12218;SDS011;6172;42.646;23.344;2022-12-20T05:59:05;15.80;;;7.90;;
12218;SDS011;6172;42.646;23.344;2022-12-20T06:01:33;17.63;;;8.57;;
12218;SDS011;6172;42.646;23.344;2022-12-20T06:04:00;20.30;;;9.37;;
12218;SDS011;6172;42.646;23.344;2022-12-20T06:06:28;16.20;;;8.77;;
12218;SDS011;6172;42.646;23.344;2022-12-20T06:08:56;18.53;;;8.90;;
12218;SDS011;6172;42.646;23.344;2022-12-20T06:11:23;20.53;;;8.73;;
12218;SDS011;6172;42.646;23.344;2022-12-20T06:13:50;21.10;;;9.33;;
12218;SDS011;6172;42.646;23.344;2022-12-20T06:16:19;15.30;;;7.23;;
12218;SDS011;6172;42.646;23.344;2022-12-20T06:18:47;20.53;;;9.00;;
12218;SDS011;6172;42.646;23.344;2022-12-20T06:21:15;20.37;;;8.43;;
12218;SDS011;6172;42.646;23.344;2022-12-20T06:23:42;18.30;;;9.23;;
12218;SDS011;6172;42.646;23.344;2022-12-20T06:26:10;14.40;;;7.37;;
12218;SDS011;6172;42.646;23.344;2022-12-20T06:28:37;19.43;;;8.43;;
12218;SDS011;6172;42.646;23.344;2022-12-20T06:31:07;23.60;;;9.63;;
12218;SDS011;6172;42.646;23.344;2022-12-20T06:33:37;19.73;;;8.57;;
12218;SDS011;6172;42.646;23.344;2022-12-20T06:36:04;23.43;;;9.33;;
12218;SDS011;6172;42.646;23.344;2022-12-20T06:38:31;13.30;;;8.17;;
12218;SDS011;6172;42.646;23.344;2022-12-20T06:41:12;18.73;;;7.93;;
12218;SDS011;6172;42.646;23.344;2022-12-20T06:43:40;19.80;;;8.10;;
12218;SDS011;6172;42.646;23.344;2022-12-20T06:46:07;16.17;;;7.63;;
12218;SDS011;6172;42.646;23.344;2022-12-20T06:48:34;13.07;;;7.50;;
12218;SDS011;6172;42.646;23.344;2022-12-20T06:51:05;18.33;;;8.73;;
12218;SDS011;6172;42.646;23.344;2022-12-20T06:53:32;15.33;;;8.53;;
12218;SDS011;6172;42.646;23.344;2022-12-20T06:55:59;20.97;;;9.07;;
12218;SDS011;6172;42.646;23.344;2022-12-20T06:58:26;15.93;;;8.70;;
12218;SDS011;6172;42.646;23.344;2022-12-20T07:00:53;16.03;;;8.30;;
12218;SDS011;6172;42.646;23.344;2022-12-20T07:03:20;27.23;;;10.07;;
12218;SDS011;6172;42.646;23.344;2022-12-20T07:05:50;20.10;;;8.30;;
12218;SDS011;6172;42.646;23.344;2022-12-20T07:08:20;25.70;;;9.30;;
12218;SDS011;6172;42.646;23.344;2022-12-20T07:10:47;16.47;;;9.93;;
12218;SDS011;6172;42.646;23.344;2022-12-20T07:13:16;15.70;;;8.97;;
12218;SDS011;6172;42.646;23.344;2022-12-20T07:15:43;15.27;;;8.20;;
12218;SDS011;6172;42.646;23.344;2022-12-20T07:18:10;19.23;;;9.57;;
12218;SDS011;6172;42.646;23.344;2022-12-20T07:20:38;16.10;;;9.17;;
12218;SDS011;6172;42.646;23.344;2022-12-20T07:23:05;15.80;;;7.77;;
12218;SDS011;6172;42.646;23.344;2022-12-20T07:25:33;18.27;;;7.60;;
12218;SDS011;6172;42.646;23.344;2022-12-20T07:28:01;14.83;;;7.37;;
12218;SDS011;6172;42.646;23.344;2022-12-20T07:30:28;17.30;;;8.00;;
12218;SDS011;6172;42.646;23.344;2022-12-20T07:32:55;15.70;;;7.50;;
12218;SDS011;6172;42.646;23.344;2022-12-20T07:35:22;13.43;;;6.63;;
12218;SDS011;6172;42.646;23.344;2022-12-20T07:37:50;11.43;;;6.80;;
12218;SDS011;6172;42.646;23.344;2022-12-20T07:40:18;12.80;;;6.87;;
12218;SDS011;6172;42.646;23.344;2022-12-20T07:42:48;12.90;;;6.80;;
12218;SDS011;6172;42.646;23.344;2022-12-20T07:45:15;12.40;;;7.30;;
12218;SDS011;6172;42.646;23.344;2022-12-20T07:47:42;12.87;;;7.07;;
12218;SDS011;6172;42.646;23.344;2022-12-20T07:50:10;12.53;;;7.03;;
12218;SDS011;6172;42.646;23.344;2022-12-20T07:52:37;11.57;;;5.70;;
12218;SDS011;6172;42.646;23.344;2022-12-20T07:55:06;11.07;;;6.60;;
12218;SDS011;6172;42.646;23.344;2022-12-20T07:57:36;11.50;;;6.77;;
12218;SDS011;6172;42.646;23.344;2022-12-20T08:00:09;14.93;;;6.53;;
12218;SDS011;6172;42.646;23.344;2022-12-20T08:02:38;12.00;;;6.93;;
12218;SDS011;6172;42.646;23.344;2022-12-20T08:05:09;13.60;;;7.03;;
12218;SDS011;6172;42.646;23.344;2022-12-20T08:07:37;12.53;;;6.20;;
12218;SDS011;6172;42.646;23.344;2022-12-20T08:10:07;14.10;;;7.17;;
12218;SDS011;6172;42.646;23.344;2022-12-20T08:12:36;12.27;;;6.07;;
12218;SDS011;6172;42.646;23.344;2022-12-20T08:15:05;13.97;;;6.77;;
12218;SDS011;6172;42.646;23.344;2022-12-20T08:17:36;12.70;;;5.93;;
12218;SDS011;6172;42.646;23.344;2022-12-20T08:20:04;16.93;;;6.57;;
12218;SDS011;6172;42.646;23.344;2022-12-20T08:22:33;13.17;;;6.57;;
12218;SDS011;6172;42.646;23.344;2022-12-20T08:25:00;16.73;;;5.90;;
12218;SDS011;6172;42.646;23.344;2022-12-20T08:27:27;13.27;;;5.47;;
12218;SDS011;6172;42.646;23.344;2022-12-20T08:29:54;10.93;;;5.40;;
12218;SDS011;6172;42.646;23.344;2022-12-20T08:32:36;8.93;;;5.60;;
12218;SDS011;6172;42.646;23.344;2022-12-20T08:35:05;9.60;;;4.90;;
12218;SDS011;6172;42.646;23.344;2022-12-20T08:37:33;15.50;;;6.27;;
12218;SDS011;6172;42.646;23.344;2022-12-20T08:40:00;13.80;;;6.40;;
12218;SDS011;6172;42.646;23.344;2022-12-20T08:42:29;9.47;;;4.80;;
12218;SDS011;6172;42.646;23.344;2022-12-20T08:44:59;10.33;;;5.10;;
12218;SDS011;6172;42.646;23.344;2022-12-20T08:47:30;11.63;;;5.40;;
12218;SDS011;6172;42.646;23.344;2022-12-20T08:50:43;9.67;;;5.10;;
12218;SDS011;6172;42.646;23.344;2022-12-20T08:53:16;9.10;;;5.37;;
12218;SDS011;6172;42.646;23.344;2022-12-20T08:56:03;13.43;;;7.90;;
12218;SDS011;6172;42.646;23.344;2022-12-20T08:58:39;12.87;;;5.67;;
12218;SDS011;6172;42.646;23.344;2022-12-20T09:01:09;8.33;;;4.97;;
12218;SDS011;6172;42.646;23.344;2022-12-20T09:03:37;11.30;;;5.67;;
12218;SDS011;6172;42.646;23.344;2022-12-20T09:06:09;12.00;;;5.73;;
12218;SDS011;6172;42.646;23.344;2022-12-20T09:08:38;12.90;;;6.20;;
12218;SDS011;6172;42.646;23.344;2022-12-20T09:11:08;14.30;;;6.33;;
12218;SDS011;6172;42.646;23.344;2022-12-20T09:13:41;11.63;;;5.70;;
12218;SDS011;6172;42.646;23.344;2022-12-20T09:16:11;9.30;;;5.60;;
12218;SDS011;6172;42.646;23.344;2022-12-20T09:18:40;10.90;;;5.67;;
12218;SDS011;6172;42.646;23.344;2022-12-20T09:21:09;10.40;;;5.40;;
12218;SDS011;6172;42.646;23.344;2022-12-20T09:23:37;9.10;;;5.97;;
12218;SDS011;6172;42.646;23.344;2022-12-20T09:26:06;10.57;;;5.80;;
12218;SDS011;6172;42.646;23.344;2022-12-20T09:28:35;12.33;;;6.80;;
12218;SDS011;6172;42.646;23.344;2022-12-20T09:31:03;13.70;;;6.80;;
12218;SDS011;6172;42.646;23.344;2022-12-20T09:33:32;9.77;;;5.53;;
12218;SDS011;6172;42.646;23.344;2022-12-20T09:36:02;11.37;;;5.67;;
12218;SDS011;6172;42.646;23.344;2022-12-20T09:38:31;10.03;;;4.97;;
12218;SDS011;6172;42.646;23.344;2022-12-20T09:40:59;8.20;;;4.83;;
12218;SDS011;6172;42.646;23.344;2022-12-20T09:43:29;10.67;;;5.70;;
12218;SDS011;6172;42.646;23.344;2022-12-20T09:45:59;10.47;;;5.47;;
12218;SDS011;6172;42.646;23.344;2022-12-20T09:48:29;8.90;;;4.60;;
12218;SDS011;6172;42.646;23.344;2022-12-20T09:51:01;11.97;;;5.13;;
12218;SDS011;6172;42.646;23.344;2022-12-20T09:53:43;9.80;;;4.67;;
12218;SDS011;6172;42.646;23.344;2022-12-20T09:56:18;7.63;;;4.47;;
12218;SDS011;6172;42.646;23.344;2022-12-20T09:58:57;23.23;;;5.83;;
12218;SDS011;6172;42.646;23.344;2022-12-20T10:01:28;11.67;;;4.63;;
12218;SDS011;6172;42.646;23.344;2022-12-20T10:04:01;12.27;;;4.93;;
12218;SDS011;6172;42.646;23.344;2022-12-20T10:06:34;11.03;;;5.67;;
12218;SDS011;6172;42.646;23.344;2022-12-20T10:09:16;10.20;;;5.83;;
12218;SDS011;6172;42.646;23.344;2022-12-20T10:12:01;7.63;;;4.67;;
12218;SDS011;6172;42.646;23.344;2022-12-20T10:14:45;8.77;;;5.10;;
12218;SDS011;6172;42.646;23.344;2022-12-20T10:17:26;10.70;;;5.40;;
12218;SDS011;6172;42.646;23.344;2022-12-20T10:20:07;7.13;;;4.57;;
12218;SDS011;6172;42.646;23.344;2022-12-20T10:22:52;14.50;;;5.27;;
12218;SDS011;6172;42.646;23.344;2022-12-20T10:25:28;13.20;;;5.23;;
12218;SDS011;6172;42.646;23.344;2022-12-20T10:27:59;9.47;;;5.03;;
12218;SDS011;6172;42.646;23.344;2022-12-20T10:30:31;13.43;;;5.80;;
12218;SDS011;6172;42.646;23.344;2022-12-20T10:33:07;7.93;;;5.13;;
12218;SDS011;6172;42.646;23.344;2022-12-20T10:35:44;11.70;;;4.97;;
12218;SDS011;6172;42.646;23.344;2022-12-20T10:38:15;14.10;;;4.97;;
12218;SDS011;6172;42.646;23.344;2022-12-20T10:40:57;13.07;;;4.63;;
12218;SDS011;6172;42.646;23.344;2022-12-20T10:43:26;8.43;;;5.00;;
12218;SDS011;6172;42.646;23.344;2022-12-20T10:45:56;7.20;;;4.47;;
12218;SDS011;6172;42.646;23.344;2022-12-20T10:48:31;7.47;;;4.80;;
12218;SDS011;6172;42.646;23.344;2022-12-20T10:51:00;12.43;;;4.60;;
12218;SDS011;6172;42.646;23.344;2022-12-20T10:53:29;8.43;;;4.30;;
12218;SDS011;6172;42.646;23.344;2022-12-20T10:56:15;8.37;;;4.57;;
12218;SDS011;6172;42.646;23.344;2022-12-20T10:58:52;7.60;;;4.37;;
12218;SDS011;6172;42.646;23.344;2022-12-20T11:01:22;11.17;;;4.07;;
12218;SDS011;6172;42.646;23.344;2022-12-20T11:03:53;7.93;;;4.57;;
12218;SDS011;6172;42.646;23.344;2022-12-20T11:06:23;8.60;;;4.10;;
12218;SDS011;6172;42.646;23.344;2022-12-20T11:08:53;7.97;;;3.60;;
12218;SDS011;6172;42.646;23.344;2022-12-20T11:11:39;8.07;;;3.73;;
12218;SDS011;6172;42.646;23.344;2022-12-20T11:14:23;7.77;;;4.47;;
12218;SDS011;6172;42.646;23.344;2022-12-20T11:16:49;11.23;;;4.10;;
12218;SDS011;6172;42.646;23.344;2022-12-20T11:19:27;9.07;;;4.03;;
12218;SDS011;6172;42.646;23.344;2022-12-20T11:21:59;9.67;;;4.43;;
12218;SDS011;6172;42.646;23.344;2022-12-20T11:24:32;8.00;;;4.07;;
12218;SDS011;6172;42.646;23.344;2022-12-20T11:27:10;7.53;;;4.17;;
12218;SDS011;6172;42.646;23.344;2022-12-20T11:29:56;10.83;;;4.87;;
12218;SDS011;6172;42.646;23.344;2022-12-20T11:32:34;7.73;;;4.00;;
12218;SDS011;6172;42.646;23.344;2022-12-20T11:35:12;8.70;;;4.07;;
12218;SDS011;6172;42.646;23.344;2022-12-20T11:37:45;7.47;;;4.57;;
12218;SDS011;6172;42.646;23.344;2022-12-20T11:40:22;11.87;;;4.20;;
12218;SDS011;6172;42.646;23.344;2022-12-20T11:43:09;11.97;;;4.77;;
12218;SDS011;6172;42.646;23.344;2022-12-20T11:45:54;10.20;;;3.80;;
12218;SDS011;6172;42.646;23.344;2022-12-20T11:48:38;5.87;;;3.40;;
12218;SDS011;6172;42.646;23.344;2022-12-20T11:51:18;9.33;;;4.00;;
12218;SDS011;6172;42.646;23.344;2022-12-20T11:53:49;8.73;;;3.83;;
12218;SDS011;6172;42.646;23.344;2022-12-20T11:56:24;7.87;;;4.00;;
12218;SDS011;6172;42.646;23.344;2022-12-20T11:58:59;8.27;;;3.60;;
12218;SDS011;6172;42.646;23.344;2022-12-20T12:01:32;9.43;;;3.97;;
12218;SDS011;6172;42.646;23.344;2022-12-20T12:04:07;7.53;;;3.63;;
12218;SDS011;6172;42.646;23.344;2022-12-20T12:06:39;10.03;;;3.47;;
12218;SDS011;6172;42.646;23.344;2022-12-20T12:09:14;40.13;;;6.90;;
12218;SDS011;6172;42.646;23.344;2022-12-20T12:11:49;7.83;;;3.80;;
12218;SDS011;6172;42.646;23.344;2022-12-20T12:14:29;8.40;;;3.67;;
12218;SDS011;6172;42.646;23.344;2022-12-20T12:17:07;7.67;;;3.80;;
12218;SDS011;6172;42.646;23.344;2022-12-20T12:19:39;15.10;;;3.77;;
12218;SDS011;6172;42.646;23.344;2022-12-20T12:22:09;8.07;;;4.40;;
12218;SDS011;6172;42.646;23.344;2022-12-20T12:24:42;11.47;;;4.27;;
12218;SDS011;6172;42.646;23.344;2022-12-20T12:27:16;9.03;;;3.93;;
12218;SDS011;6172;42.646;23.344;2022-12-20T12:29:49;13.73;;;3.73;;
12218;SDS011;6172;42.646;23.344;2022-12-20T12:32:20;16.50;;;4.33;;
12218;SDS011;6172;42.646;23.344;2022-12-20T12:34:59;12.97;;;4.53;;
12218;SDS011;6172;42.646;23.344;2022-12-20T12:40:33;10.87;;;4.20;;
12218;SDS011;6172;42.646;23.344;2022-12-20T12:43:21;11.07;;;4.90;;
12218;SDS011;6172;42.646;23.344;2022-12-20T12:46:11;17.27;;;5.63;;
12218;SDS011;6172;42.646;23.344;2022-12-20T12:48:42;19.03;;;5.50;;
12218;SDS011;6172;42.646;23.344;2022-12-20T12:51:21;11.07;;;4.83;;
12218;SDS011;6172;42.646;23.344;2022-12-20T12:53:52;21.43;;;6.33;;
12218;SDS011;6172;42.646;23.344;2022-12-20T12:56:31;15.23;;;5.67;;
12218;SDS011;6172;42.646;23.344;2022-12-20T12:59:19;9.60;;;5.20;;
12218;SDS011;6172;42.646;23.344;2022-12-20T13:05:31;10.17;;;5.03;;
12218;SDS011;6172;42.646;23.344;2022-12-20T13:07:59;8.30;;;5.13;;
12218;SDS011;6172;42.646;23.344;2022-12-20T13:13:25;10.07;;;5.70;;
12218;SDS011;6172;42.646;23.344;2022-12-20T13:16:11;14.53;;;6.53;;
12218;SDS011;6172;42.646;23.344;2022-12-20T13:19:13;9.27;;;5.33;;
12218;SDS011;6172;42.646;23.344;2022-12-20T13:21:42;10.70;;;5.50;;
12218;SDS011;6172;42.646;23.344;2022-12-20T13:27:15;8.50;;;4.67;;
12218;SDS011;6172;42.646;23.344;2022-12-20T13:29:50;8.73;;;5.00;;
12218;SDS011;6172;42.646;23.344;2022-12-20T13:35:53;8.33;;;4.60;;
12218;SDS011;6172;42.646;23.344;2022-12-20T13:47:09;8.17;;;4.50;;
12218;SDS011;6172;42.646;23.344;2022-12-20T13:49:46;7.93;;;4.17;;
12218;SDS011;6172;42.646;23.344;2022-12-20T13:52:21;9.70;;;5.63;;
12218;SDS011;6172;42.646;23.344;2022-12-20T13:54:53;14.67;;;7.37;;
12218;SDS011;6172;42.646;23.344;2022-12-20T13:57:28;15.13;;;7.60;;
12218;SDS011;6172;42.646;23.344;2022-12-20T13:59:57;11.67;;;6.83;;
12218;SDS011;6172;42.646;23.344;2022-12-20T14:02:28;13.90;;;6.67;;
12218;SDS011;6172;42.646;23.344;2022-12-20T14:04:59;15.03;;;6.90;;
12218;SDS011;6172;42.646;23.344;2022-12-20T14:07:30;7.43;;;4.07;;
12218;SDS011;6172;42.646;23.344;2022-12-20T14:09:59;10.83;;;4.37;;
12218;SDS011;6172;42.646;23.344;2022-12-20T14:12:27;11.13;;;3.80;;
12218;SDS011;6172;42.646;23.344;2022-12-20T14:14:55;5.33;;;3.10;;
12218;SDS011;6172;42.646;23.344;2022-12-20T14:17:23;8.77;;;3.33;;
12218;SDS011;6172;42.646;23.344;2022-12-20T14:20:02;7.33;;;3.70;;
12218;SDS011;6172;42.646;23.344;2022-12-20T14:22:41;7.93;;;3.10;;
12218;SDS011;6172;42.646;23.344;2022-12-20T14:25:20;9.43;;;4.20;;
12218;SDS011;6172;42.646;23.344;2022-12-20T14:27:53;9.07;;;3.63;;
12218;SDS011;6172;42.646;23.344;2022-12-20T14:30:31;7.67;;;3.27;;
12218;SDS011;6172;42.646;23.344;2022-12-20T14:33:01;8.30;;;4.20;;
12218;SDS011;6172;42.646;23.344;2022-12-20T14:35:28;9.57;;;4.17;;
12218;SDS011;6172;42.646;23.344;2022-12-20T14:37:58;13.97;;;4.20;;
12218;SDS011;6172;42.646;23.344;2022-12-20T14:40:27;8.97;;;3.90;;
12218;SDS011;6172;42.646;23.344;2022-12-20T14:42:56;7.83;;;3.10;;
12218;SDS011;6172;42.646;23.344;2022-12-20T14:45:24;10.70;;;4.40;;
12218;SDS011;6172;42.646;23.344;2022-12-20T14:47:57;7.77;;;4.07;;
12218;SDS011;6172;42.646;23.344;2022-12-20T14:50:28;10.27;;;4.83;;
12218;SDS011;6172;42.646;23.344;2022-12-20T14:52:58;9.20;;;4.57;;
12218;SDS011;6172;42.646;23.344;2022-12-20T14:55:31;9.23;;;4.27;;
12218;SDS011;6172;42.646;23.344;2022-12-20T14:58:23;10.43;;;4.67;;
12218;SDS011;6172;42.646;23.344;2022-12-20T15:00:56;9.03;;;4.43;;
12218;SDS011;6172;42.646;23.344;2022-12-20T15:03:24;8.90;;;3.33;;
12218;SDS011;6172;42.646;23.344;2022-12-20T15:05:51;9.30;;;4.40;;
12218;SDS011;6172;42.646;23.344;2022-12-20T15:08:22;9.37;;;4.37;;
12218;SDS011;6172;42.646;23.344;2022-12-20T15:10:53;9.67;;;4.70;;
12218;SDS011;6172;42.646;23.344;2022-12-20T15:13:24;12.67;;;5.10;;
12218;SDS011;6172;42.646;23.344;2022-12-20T15:15:54;11.50;;;4.70;;
12218;SDS011;6172;42.646;23.344;2022-12-20T15:18:24;10.93;;;5.68;;
12218;SDS011;6172;42.646;23.344;2022-12-20T15:20:53;14.57;;;6.10;;
12218;SDS011;6172;42.646;23.344;2022-12-20T15:23:33;17.63;;;7.50;;
12218;SDS011;6172;42.646;23.344;2022-12-20T15:26:01;14.97;;;7.13;;
12218;SDS011;6172;42.646;23.344;2022-12-20T15:28:31;14.07;;;7.57;;
12218;SDS011;6172;42.646;23.344;2022-12-20T15:30:59;16.43;;;7.07;;
12218;SDS011;6172;42.646;23.344;2022-12-20T15:33:26;14.67;;;7.23;;
12218;SDS011;6172;42.646;23.344;2022-12-20T15:35:57;17.43;;;8.27;;
12218;SDS011;6172;42.646;23.344;2022-12-20T15:38:25;16.57;;;8.73;;
12218;SDS011;6172;42.646;23.344;2022-12-20T15:40:55;16.83;;;8.40;;